createdAt,value
2022-10-01T00:03:47.099Z,3.03
2022-10-01T00:06:18.016Z,2.22
2022-10-01T00:08:50.998Z,3.03
2022-10-01T00:11:23.863Z,2.70
2022-10-01T00:13:53.639Z,2.30
2022-10-01T00:16:24.324Z,2.42
2022-10-01T00:18:54.187Z,2.47
2022-10-01T00:21:32.633Z,2.08
2022-10-01T00:24:07.676Z,2.40
2022-10-01T00:26:43.206Z,2.55
2022-10-01T00:32:18.220Z,1.95
2022-10-01T00:34:53.309Z,1.95
2022-10-01T00:37:46.104Z,2.30
2022-10-01T00:40:27.175Z,2.70
2022-10-01T00:43:00.920Z,2.97
2022-10-01T00:48:56.759Z,2.65
2022-10-01T00:51:44.079Z,1.95
2022-10-01T00:54:37.040Z,2.10
2022-10-01T00:57:23.161Z,1.95
2022-10-01T01:00:17.380Z,2.15
2022-10-01T01:05:33.321Z,2.03
2022-10-01T01:08:58.607Z,2.35
2022-10-01T01:15:09.037Z,2.33
2022-10-01T01:21:30.677Z,2.50
2022-10-01T01:24:41.595Z,2.10
2022-10-01T01:27:27.393Z,1.83
2022-10-01T01:30:34.482Z,2.30
2022-10-01T01:33:13.562Z,2.33
2022-10-01T01:35:58.911Z,1.98
2022-10-01T01:38:44.463Z,2.75
2022-10-01T01:41:22.405Z,2.47
2022-10-01T01:47:31.642Z,2.58
2022-10-01T01:50:10.042Z,2.35
2022-10-01T01:53:08.409Z,1.40
2022-10-01T01:56:04.993Z,2.80
2022-10-01T01:58:39.811Z,2.05
2022-10-01T02:01:36.366Z,1.98
2022-10-01T02:08:04.085Z,3.05
2022-10-01T02:12:08.577Z,1.75
2022-10-01T02:17:12.571Z,2.53
2022-10-01T02:20:45.632Z,1.92
2022-10-01T02:24:14.038Z,2.42
2022-10-01T02:40:45.564Z,1.77
2022-10-01T02:43:22.257Z,2.30
2022-10-01T02:46:02.358Z,1.13
2022-10-01T02:48:32.180Z,1.88
2022-10-01T02:51:44.190Z,1.30
2022-10-01T02:54:48.715Z,2.03
2022-10-01T02:57:24.306Z,2.05
2022-10-01T02:59:59.736Z,1.98
2022-10-01T03:06:25.453Z,1.95
2022-10-01T03:09:08.866Z,1.90
2022-10-01T03:18:12.135Z,2.05
2022-10-01T03:21:32.638Z,2.00
2022-10-01T03:27:34.328Z,1.63
2022-10-01T03:30:06.587Z,1.80
2022-10-01T03:39:05.003Z,2.50
2022-10-01T03:42:06.090Z,2.25
2022-10-01T03:51:54.504Z,2.28
2022-10-01T03:57:23.628Z,2.10
2022-10-01T03:59:51.889Z,1.90
2022-10-01T04:02:51.572Z,1.90
2022-10-01T04:05:25.981Z,2.25
2022-10-01T04:07:58.212Z,2.78
2022-10-01T04:10:41.759Z,2.55
2022-10-01T04:13:26.097Z,1.98
2022-10-01T04:16:19.243Z,2.35
2022-10-01T04:18:49.819Z,1.88
2022-10-01T04:21:35.039Z,2.03
2022-10-01T04:24:12.651Z,1.73
2022-10-01T04:26:48.313Z,2.60
2022-10-01T04:29:20.206Z,1.45
2022-10-01T04:32:12.651Z,1.80
2022-10-01T04:37:58.413Z,2.08
2022-10-01T04:40:34.562Z,2.20
2022-10-01T04:46:37.437Z,1.48
2022-10-01T04:49:17.760Z,1.80
2022-10-01T04:52:08.548Z,2.67
2022-10-01T05:01:28.740Z,2.20
2022-10-01T05:03:58.140Z,1.88
2022-10-01T05:06:34.725Z,1.70
2022-10-01T05:09:21.011Z,2.50
2022-10-01T05:12:40.946Z,2.17
2022-10-01T05:16:17.628Z,1.80
2022-10-01T05:18:52.445Z,1.95
2022-10-01T05:22:01.417Z,1.48
2022-10-01T05:24:34.538Z,2.17
2022-10-01T05:27:19.672Z,2.03
2022-10-01T05:29:51.152Z,2.05
2022-10-01T05:37:03.647Z,2.15
2022-10-01T05:39:36.742Z,2.10
2022-10-01T05:43:09.951Z,2.28
2022-10-01T05:45:43.942Z,1.90
2022-10-01T05:49:07.834Z,1.70
2022-10-01T05:54:46.828Z,1.58
2022-10-01T05:57:56.266Z,2.70
2022-10-01T06:00:35.320Z,2.38
2022-10-01T06:03:27.187Z,1.67
2022-10-01T06:09:52.163Z,2.17
2022-10-01T06:12:44.128Z,2.08
2022-10-01T06:15:24.960Z,1.77
2022-10-01T06:17:55.069Z,2.40
2022-10-01T06:20:52.823Z,2.00
2022-10-01T06:23:34.783Z,1.80
2022-10-01T06:26:37.109Z,2.70
2022-10-01T06:32:38.451Z,1.80
2022-10-01T06:35:24.552Z,1.67
2022-10-01T06:38:14.280Z,1.73
2022-10-01T06:44:18.228Z,1.95
2022-10-01T06:47:05.701Z,2.47
2022-10-01T06:49:37.534Z,2.25
2022-10-01T06:52:36.864Z,1.73
2022-10-01T06:55:40.093Z,1.90
2022-10-01T06:58:33.387Z,1.70
2022-10-01T07:01:16.814Z,1.55
2022-10-01T07:04:15.291Z,2.33
2022-10-01T07:06:51.251Z,1.58
2022-10-01T07:09:25.767Z,2.55
2022-10-01T07:11:59.002Z,1.63
2022-10-01T07:15:15.000Z,1.83
2022-10-01T07:18:28.376Z,2.65
2022-10-01T07:21:19.921Z,2.70
2022-10-01T07:23:59.909Z,1.35
2022-10-01T07:26:32.030Z,2.72
2022-10-01T07:29:07.076Z,1.38
2022-10-01T07:31:41.015Z,1.73
2022-10-01T07:34:20.812Z,1.55
2022-10-01T07:37:23.481Z,2.05
2022-10-01T07:40:08.836Z,1.70
2022-10-01T07:45:29.632Z,2.05
2022-10-01T07:47:59.591Z,1.08
2022-10-01T07:51:06.785Z,1.48
2022-10-01T07:59:44.995Z,1.20
2022-10-01T08:03:51.931Z,1.58
2022-10-01T08:12:28.852Z,2.50
2022-10-01T08:15:15.905Z,1.55
2022-10-01T08:17:56.624Z,2.30
2022-10-01T08:20:25.718Z,2.28
2022-10-01T08:24:07.974Z,2.15
2022-10-01T08:26:59.166Z,2.08
2022-10-01T08:35:38.130Z,1.42
2022-10-01T08:38:56.388Z,1.67
2022-10-01T08:43:12.975Z,1.85
2022-10-01T08:48:14.569Z,1.58
2022-10-01T09:43:10.588Z,1.30
2022-10-01T09:48:36.103Z,1.55
2022-10-01T09:51:17.322Z,1.65
2022-10-01T09:54:01.539Z,1.48
2022-10-01T09:56:42.074Z,1.20
2022-10-01T09:59:25.732Z,1.48
2022-10-01T10:02:02.547Z,1.15
2022-10-01T10:04:31.860Z,2.13
2022-10-01T10:07:08.086Z,1.27
2022-10-01T10:09:57.676Z,1.23
2022-10-01T10:12:50.621Z,1.55
2022-10-01T10:15:22.241Z,1.40
2022-10-01T10:18:23.950Z,1.13
2022-10-01T10:27:27.037Z,1.38
2022-10-01T10:30:12.715Z,1.30
2022-10-01T10:32:41.805Z,1.60
2022-10-01T10:35:23.938Z,1.50
2022-10-01T10:38:02.641Z,1.10
2022-10-01T10:41:01.671Z,1.55
2022-10-01T10:44:15.267Z,1.42
2022-10-01T10:46:46.430Z,1.60
2022-10-01T10:55:33.294Z,1.35
2022-10-01T10:58:25.096Z,2.50
2022-10-01T11:00:59.057Z,1.45
2022-10-01T11:04:03.857Z,1.45
2022-10-01T11:06:44.147Z,1.70
2022-10-01T11:09:49.650Z,1.83
2022-10-01T11:13:01.028Z,1.45
2022-10-01T11:15:47.482Z,1.48
2022-10-01T11:19:08.793Z,1.13
2022-10-01T11:22:14.589Z,1.13
2022-10-01T11:25:30.692Z,1.27
2022-10-01T11:28:30.907Z,0.80
2022-10-01T11:34:56.085Z,1.15
2022-10-01T11:44:15.967Z,0.80
2022-10-01T11:47:18.504Z,1.23
2022-10-01T11:50:20.409Z,1.13
2022-10-01T11:52:59.744Z,1.17
2022-10-01T11:59:03.743Z,1.10
2022-10-01T12:01:45.161Z,1.15
2022-10-01T12:08:09.467Z,1.27
2022-10-01T12:10:48.408Z,1.33
2022-10-01T12:13:35.607Z,1.10
2022-10-01T12:16:30.356Z,1.08
2022-10-01T12:19:11.379Z,1.48
2022-10-01T12:22:06.449Z,0.90
2022-10-01T12:25:09.239Z,1.00
2022-10-01T12:28:04.792Z,1.20
2022-10-01T12:31:04.299Z,0.95
2022-10-01T12:34:11.748Z,0.95
2022-10-01T12:37:13.096Z,1.50
2022-10-01T12:40:35.968Z,1.00
2022-10-01T12:44:07.776Z,0.80
2022-10-01T12:47:24.363Z,1.00
2022-10-01T12:50:19.205Z,1.25
2022-10-01T12:53:34.401Z,1.00
2022-10-01T12:56:29.479Z,1.30
2022-10-01T12:59:58.453Z,1.48
2022-10-01T13:03:02.147Z,1.00
2022-10-01T13:06:39.878Z,0.95
2022-10-01T13:09:48.901Z,1.20
2022-10-01T13:16:15.617Z,1.55
2022-10-01T13:27:17.751Z,0.25
2022-10-01T13:30:22.259Z,0.90
2022-10-01T13:33:20.971Z,0.75
2022-10-01T13:36:28.238Z,0.85
2022-10-01T13:40:41.801Z,0.73
2022-10-01T14:32:35.837Z,1.38
2022-10-01T14:42:01.501Z,1.08
2022-10-01T14:44:59.350Z,1.20
2022-10-01T14:48:16.184Z,1.40
2022-10-01T14:54:13.074Z,1.40
2022-10-01T14:57:05.027Z,1.08
2022-10-01T15:06:42.730Z,0.98
2022-10-01T15:09:18.827Z,1.33
2022-10-01T15:12:02.216Z,1.30
2022-10-01T15:14:33.955Z,0.95
2022-10-01T15:17:32.431Z,1.35
2022-10-01T15:24:23.962Z,1.23
2022-10-01T17:05:55.535Z,1.73
2022-10-01T17:08:23.951Z,1.65
2022-10-01T17:11:15.451Z,1.70
2022-10-01T17:13:43.911Z,1.70
2022-10-01T17:16:15.653Z,1.90
2022-10-01T17:19:11.651Z,1.50
2022-10-01T17:21:42.927Z,2.33
2022-10-01T17:24:14.546Z,1.85
2022-10-01T17:26:46.843Z,1.90
2022-10-01T17:29:17.148Z,2.03
2022-10-01T17:32:15.651Z,1.67
2022-10-01T17:34:46.790Z,2.70
2022-10-01T17:37:17.095Z,2.22
2022-10-01T17:39:54.614Z,2.80
2022-10-01T17:42:36.849Z,1.55
2022-10-01T17:45:31.822Z,2.00
2022-10-01T17:48:01.249Z,1.42
2022-10-01T17:50:32.166Z,1.77
2022-10-01T17:53:08.519Z,1.73
2022-10-01T17:55:46.926Z,1.98
2022-10-01T17:58:16.492Z,1.40
2022-10-01T18:00:44.893Z,1.95
2022-10-01T18:03:14.778Z,2.38
2022-10-01T18:08:55.037Z,1.30
2022-10-01T18:11:28.522Z,1.73
2022-10-01T18:14:09.661Z,2.25
2022-10-01T18:16:38.447Z,1.73
2022-10-01T18:21:57.347Z,1.73
2022-10-01T18:24:28.570Z,2.83
2022-10-01T18:27:01.669Z,1.95
2022-10-01T18:29:30.035Z,2.70
2022-10-01T18:32:15.220Z,2.17
2022-10-01T18:34:48.656Z,3.45
2022-10-01T18:37:28.691Z,5.22
2022-10-01T18:40:16.293Z,4.18
2022-10-01T18:42:50.132Z,17.52
2022-10-01T18:45:26.639Z,14.70
2022-10-01T18:49:45.852Z,5.43
2022-10-01T18:52:37.965Z,6.20
2022-10-01T18:56:01.706Z,2.63
2022-10-01T18:59:06.865Z,2.35
2022-10-01T19:01:50.949Z,1.85
2022-10-01T19:04:43.813Z,1.55
2022-10-01T19:07:24.001Z,2.13
2022-10-01T19:12:46.964Z,2.70
2022-10-01T19:15:38.989Z,2.70
2022-10-01T19:18:28.395Z,2.90
2022-10-01T19:21:08.651Z,2.83
2022-10-01T19:26:19.581Z,2.55
2022-10-01T19:29:07.655Z,2.55
2022-10-01T19:31:44.931Z,3.33
2022-10-01T19:34:22.629Z,5.30
2022-10-01T19:37:07.061Z,3.38
2022-10-01T19:39:40.622Z,3.22
2022-10-01T19:42:16.013Z,3.65
2022-10-01T19:44:56.887Z,4.57
2022-10-01T19:47:33.120Z,3.08
2022-10-01T19:50:11.301Z,5.75
2022-10-01T19:52:49.510Z,4.10
2022-10-01T19:55:25.955Z,5.60
2022-10-01T19:57:54.463Z,4.68
2022-10-01T20:00:25.181Z,4.15
2022-10-01T20:03:04.351Z,3.22
2022-10-01T20:05:43.511Z,4.57
2022-10-01T20:08:18.277Z,9.82
2022-10-01T20:10:51.344Z,2.92
2022-10-01T20:13:37.465Z,8.07
2022-10-01T20:16:20.049Z,3.78
2022-10-01T20:18:57.693Z,3.17
2022-10-01T20:21:57.574Z,3.30
2022-10-01T20:24:41.955Z,4.93
2022-10-01T20:27:27.972Z,3.10
2022-10-01T20:30:04.905Z,2.53
2022-10-01T20:32:39.349Z,3.20
2022-10-01T20:35:21.033Z,2.50
2022-10-01T20:37:59.652Z,2.58
2022-10-01T20:40:32.889Z,4.93
2022-10-01T20:43:07.245Z,3.55
2022-10-01T20:45:36.707Z,3.67
2022-10-01T20:48:16.163Z,3.10
2022-10-01T20:50:47.842Z,3.20
2022-10-01T20:53:35.361Z,3.75
2022-10-01T20:56:06.658Z,2.20
2022-10-01T20:59:14.010Z,2.40
2022-10-01T21:01:50.952Z,2.88
2022-10-01T21:04:33.803Z,2.22
2022-10-01T21:07:11.987Z,3.90
2022-10-01T21:09:51.924Z,2.80
2022-10-01T21:12:34.400Z,3.20
2022-10-01T21:15:04.337Z,2.35
2022-10-01T21:17:56.818Z,2.97
2022-10-01T21:21:00.597Z,2.10
2022-10-01T21:24:06.706Z,2.20
2022-10-01T21:26:43.611Z,2.63
2022-10-01T21:29:42.253Z,2.03
2022-10-01T21:32:25.913Z,2.13
2022-10-01T21:35:23.818Z,2.38
2022-10-01T21:38:28.123Z,1.85
2022-10-01T21:41:16.282Z,1.38
2022-10-01T21:44:26.202Z,2.17
2022-10-01T21:47:04.599Z,2.72
2022-10-01T21:49:56.035Z,1.67
2022-10-01T21:52:37.371Z,2.05
2022-10-01T21:55:48.863Z,1.80
2022-10-01T21:58:33.900Z,1.75
2022-10-01T22:01:13.886Z,1.55
2022-10-01T22:03:49.672Z,1.67
2022-10-01T22:06:23.862Z,1.98
2022-10-01T22:11:51.214Z,1.63
2022-10-01T22:14:39.150Z,1.42
2022-10-01T22:17:17.290Z,1.50
2022-10-01T22:19:52.709Z,1.58
2022-10-01T22:22:31.320Z,1.48
2022-10-01T22:25:10.587Z,1.73
2022-10-01T22:27:51.139Z,1.40
2022-10-01T22:30:26.022Z,1.33
2022-10-01T22:33:08.147Z,1.40
2022-10-01T22:35:44.129Z,0.98
2022-10-01T22:38:19.987Z,1.42
2022-10-01T22:41:00.634Z,1.27
2022-10-01T22:43:30.914Z,2.05
2022-10-01T22:46:37.930Z,1.40
2022-10-01T22:49:15.135Z,1.33
2022-10-01T22:51:57.627Z,2.42
2022-10-01T22:55:05.257Z,1.73
2022-10-01T22:57:54.690Z,1.27
2022-10-01T23:00:23.285Z,1.48
2022-10-01T23:06:19.868Z,2.03
2022-10-01T23:09:01.682Z,1.42
2022-10-01T23:11:44.983Z,1.40
2022-10-01T23:14:30.321Z,1.77
2022-10-01T23:17:33.631Z,1.58
2022-10-01T23:20:15.853Z,1.50
2022-10-01T23:23:21.718Z,2.00
2022-10-01T23:26:08.647Z,1.75
2022-10-01T23:29:00.017Z,1.45
2022-10-01T23:31:38.128Z,1.70
2022-10-01T23:34:26.114Z,1.50
2022-10-01T23:37:16.547Z,1.55
2022-10-01T23:40:03.870Z,1.67
2022-10-01T23:42:43.642Z,1.50
2022-10-01T23:45:21.634Z,2.30
2022-10-01T23:47:57.564Z,1.67
2022-10-01T23:50:36.460Z,1.80
2022-10-01T23:53:23.102Z,1.70
2022-10-01T23:56:14.499Z,1.77
2022-10-01T23:58:48.729Z,1.95
